Airfield :
LOGIN :

Register | Disclaimer

   EN    FR    IT 

 










Legend :    VFR   Marginal VFR   IFR   Intensive IFR   Very Intensive IFR
Visi :
Ceiling :
>= 8 km
>= 3000ft
5 to 8 km
1000 to 3000 ft
1500m to 5 km
500 to 1000 ft
800 to 1500m
200 to 500 ft
< 800m
< 200 ft
Symbols :   Thunderstorms  Fog  Heavy snow  Heavy precipitations  Wind > 20 kt
SIGMETs :     Misc.  Thunderstorms  Icing  Turbulence  Mountain Waves  Volcanic Ashes







- Airport Elevation : 1682 ft
- IATA code : VIT


LEVT - Vitoria Gasteiz

CURRENT METAR :
  • 211200Z 05006KT 350V080 9999 FEW025 SCT040 11/00 Q1029

EXPIRED METARs :
  • 211130Z 05005KT 340V100 9999 FEW025 BKN040 10/03 Q1029
  • 211100Z 04001KT 9999 FEW020 BKN035 09/04 Q1030
  • 211030Z 09004KT 030V150 9999 FEW020 SCT035 09/05 Q1030
  • 211000Z VRB02KT 9999 FEW018 SCT028 09/04 Q1030
  • 210930Z 10001KT 9999 SCT015 08/04 Q1030

TAF TAF LEVT
Valid from the 21 at 12:00 until the 22 at 12:00 UTC


211100Z 2112/2212 02010KT 9999 SCT030 TX14/2114Z TNM02/2206Z
BECMG 2119/2122 VRB04KT
PROB30
TEMPO 2200/2206 3000 BR BCFG
No reported NOTAMs for that airfield.



MET'MAP, your aeronautical weather chart ! - Copyright ORBIFLY December 2007 - Disclaimer

ORBIFLY MET'MAP TEAM :

Programming & Development : Alexandra Zaïnal
Concept & Development : Baudouin d'Aumeries
Co-Development & Prog : Marc-Olivier Méhu
Technical & hardware support : Manuel Goepfert

Contact : metmap@orbifly.com




SOURCES & CREDITS :

   NOAA